sensor_id;sensor_type;location;lat;lon;timestamp;temperature;humidity
58339;DHT22;48278;52.704;6.536;2023-02-28T00:00:18;3.60;99.90
58339;DHT22;48278;52.704;6.536;2023-02-28T00:02:45;3.60;99.90
58339;DHT22;48278;52.704;6.536;2023-02-28T00:05:13;3.50;99.90
58339;DHT22;48278;52.704;6.536;2023-02-28T00:07:39;3.60;99.90
58339;DHT22;48278;52.704;6.536;2023-02-28T00:10:07;3.60;99.90
58339;DHT22;48278;52.704;6.536;2023-02-28T00:12:34;3.60;99.90
58339;DHT22;48278;52.704;6.536;2023-02-28T00:15:00;3.60;99.90
58339;DHT22;48278;52.704;6.536;2023-02-28T00:17:26;3.60;99.90
58339;DHT22;48278;52.704;6.536;2023-02-28T00:19:52;3.60;99.90
58339;DHT22;48278;52.704;6.536;2023-02-28T00:22:20;3.60;99.90
58339;DHT22;48278;52.704;6.536;2023-02-28T00:24:46;3.60;99.90
58339;DHT22;48278;52.704;6.536;2023-02-28T00:27:13;3.60;99.90
58339;DHT22;48278;52.704;6.536;2023-02-28T00:29:39;3.60;99.90
58339;DHT22;48278;52.704;6.536;2023-02-28T00:32:06;3.60;99.90
58339;DHT22;48278;52.704;6.536;2023-02-28T00:34:32;3.50;99.90
58339;DHT22;48278;52.704;6.536;2023-02-28T00:37:07;3.60;99.90
58339;DHT22;48278;52.704;6.536;2023-02-28T00:39:34;3.60;99.90
58339;DHT22;48278;52.704;6.536;2023-02-28T00:42:01;3.60;99.90
58339;DHT22;48278;52.704;6.536;2023-02-28T00:44:28;3.60;99.90
58339;DHT22;48278;52.704;6.536;2023-02-28T00:46:53;3.60;99.90
58339;DHT22;48278;52.704;6.536;2023-02-28T00:49:20;3.60;99.90
58339;DHT22;48278;52.704;6.536;2023-02-28T00:51:46;3.60;99.90
58339;DHT22;48278;52.704;6.536;2023-02-28T00:54:12;3.60;99.90
58339;DHT22;48278;52.704;6.536;2023-02-28T00:56:38;3.60;99.90
58339;DHT22;48278;52.704;6.536;2023-02-28T00:59:03;3.60;99.90
58339;DHT22;48278;52.704;6.536;2023-02-28T01:01:29;3.60;99.90
58339;DHT22;48278;52.704;6.536;2023-02-28T01:03:55;3.60;99.90
58339;DHT22;48278;52.704;6.536;2023-02-28T01:06:20;3.60;99.90
58339;DHT22;48278;52.704;6.536;2023-02-28T01:08:46;3.70;99.90
58339;DHT22;48278;52.704;6.536;2023-02-28T01:11:15;3.60;99.90
58339;DHT22;48278;52.704;6.536;2023-02-28T01:13:41;3.60;99.90
58339;DHT22;48278;52.704;6.536;2023-02-28T01:16:07;3.60;99.90
58339;DHT22;48278;52.704;6.536;2023-02-28T01:18:33;3.60;99.90
58339;DHT22;48278;52.704;6.536;2023-02-28T01:21:06;3.60;99.90
58339;DHT22;48278;52.704;6.536;2023-02-28T01:23:32;3.70;99.90
58339;DHT22;48278;52.704;6.536;2023-02-28T01:26:13;3.70;99.90
58339;DHT22;48278;52.704;6.536;2023-02-28T01:28:40;3.70;99.90
58339;DHT22;48278;52.704;6.536;2023-02-28T01:31:06;3.70;99.90
58339;DHT22;48278;52.704;6.536;2023-02-28T01:33:33;3.70;99.90
58339;DHT22;48278;52.704;6.536;2023-02-28T01:35:59;3.70;99.90
58339;DHT22;48278;52.704;6.536;2023-02-28T01:38:26;3.70;99.90
58339;DHT22;48278;52.704;6.536;2023-02-28T01:40:52;3.80;99.90
58339;DHT22;48278;52.704;6.536;2023-02-28T01:46:17;3.70;99.90
58339;DHT22;48278;52.704;6.536;2023-02-28T01:51:34;3.70;99.90
58339;DHT22;48278;52.704;6.536;2023-02-28T01:54:11;3.70;99.90
58339;DHT22;48278;52.704;6.536;2023-02-28T01:56:52;3.70;99.90
58339;DHT22;48278;52.704;6.536;2023-02-28T01:59:24;3.70;99.90
58339;DHT22;48278;52.704;6.536;2023-02-28T02:01:53;3.70;99.90
58339;DHT22;48278;52.704;6.536;2023-02-28T02:04:19;3.70;99.90
58339;DHT22;48278;52.704;6.536;2023-02-28T02:06:48;3.70;99.90
58339;DHT22;48278;52.704;6.536;2023-02-28T02:09:14;3.70;99.90
58339;DHT22;48278;52.704;6.536;2023-02-28T02:11:45;3.70;99.90
58339;DHT22;48278;52.704;6.536;2023-02-28T02:23:13;3.70;99.90
58339;DHT22;48278;52.704;6.536;2023-02-28T02:25:28;3.60;99.90
58339;DHT22;48278;52.704;6.536;2023-02-28T02:39:48;3.60;99.90
58339;DHT22;48278;52.704;6.536;2023-02-28T02:42:27;3.50;99.90
58339;DHT22;48278;52.704;6.536;2023-02-28T02:45:01;3.40;99.90
58339;DHT22;48278;52.704;6.536;2023-02-28T02:47:30;3.40;99.90
58339;DHT22;48278;52.704;6.536;2023-02-28T02:49:59;3.30;99.90
58339;DHT22;48278;52.704;6.536;2023-02-28T02:52:38;3.30;99.90
58339;DHT22;48278;52.704;6.536;2023-02-28T02:55:07;3.30;99.90
58339;DHT22;48278;52.704;6.536;2023-02-28T02:57:49;3.30;99.90
58339;DHT22;48278;52.704;6.536;2023-02-28T03:00:19;3.30;99.90
58339;DHT22;48278;52.704;6.536;2023-02-28T03:02:47;3.20;99.90
58339;DHT22;48278;52.704;6.536;2023-02-28T03:05:33;3.20;99.90
58339;DHT22;48278;52.704;6.536;2023-02-28T03:08:02;3.20;99.90
58339;DHT22;48278;52.704;6.536;2023-02-28T03:10:32;3.20;99.90
58339;DHT22;48278;52.704;6.536;2023-02-28T03:26:55;3.10;99.90
58339;DHT22;48278;52.704;6.536;2023-02-28T03:29:35;3.10;99.90
58339;DHT22;48278;52.704;6.536;2023-02-28T03:32:11;3.10;99.90
58339;DHT22;48278;52.704;6.536;2023-02-28T03:35:01;3.10;99.90
58339;DHT22;48278;52.704;6.536;2023-02-28T03:37:32;3.10;99.90
58339;DHT22;48278;52.704;6.536;2023-02-28T03:40:10;3.10;99.90
58339;DHT22;48278;52.704;6.536;2023-02-28T03:42:41;3.10;99.90
58339;DHT22;48278;52.704;6.536;2023-02-28T03:45:29;3.10;99.90
58339;DHT22;48278;52.704;6.536;2023-02-28T03:48:32;3.10;99.90
58339;DHT22;48278;52.704;6.536;2023-02-28T03:50:54;3.10;99.90
58339;DHT22;48278;52.704;6.536;2023-02-28T03:53:36;3.20;99.90
58339;DHT22;48278;52.704;6.536;2023-02-28T03:59:14;3.20;99.90
58339;DHT22;48278;52.704;6.536;2023-02-28T04:01:44;3.10;99.90
58339;DHT22;48278;52.704;6.536;2023-02-28T04:04:11;3.10;99.90
58339;DHT22;48278;52.704;6.536;2023-02-28T04:06:38;3.00;99.90
58339;DHT22;48278;52.704;6.536;2023-02-28T04:09:05;3.10;99.90
58339;DHT22;48278;52.704;6.536;2023-02-28T04:11:45;3.00;99.90
58339;DHT22;48278;52.704;6.536;2023-02-28T04:14:13;3.00;99.90
58339;DHT22;48278;52.704;6.536;2023-02-28T04:16:41;3.00;99.90
58339;DHT22;48278;52.704;6.536;2023-02-28T04:19:08;3.00;99.90
58339;DHT22;48278;52.704;6.536;2023-02-28T04:21:35;3.00;99.90
58339;DHT22;48278;52.704;6.536;2023-02-28T04:24:02;3.00;99.90
58339;DHT22;48278;52.704;6.536;2023-02-28T04:26:37;3.00;99.90
58339;DHT22;48278;52.704;6.536;2023-02-28T04:29:05;3.00;99.90
58339;DHT22;48278;52.704;6.536;2023-02-28T04:31:31;3.00;99.90
58339;DHT22;48278;52.704;6.536;2023-02-28T04:33:57;3.00;99.90
58339;DHT22;48278;52.704;6.536;2023-02-28T04:36:23;2.90;99.90
58339;DHT22;48278;52.704;6.536;2023-02-28T04:38:49;2.90;99.90
58339;DHT22;48278;52.704;6.536;2023-02-28T04:41:15;2.90;99.90
58339;DHT22;48278;52.704;6.536;2023-02-28T04:43:41;2.90;99.90
58339;DHT22;48278;52.704;6.536;2023-02-28T04:46:07;2.90;99.90
58339;DHT22;48278;52.704;6.536;2023-02-28T04:48:35;3.00;99.90
58339;DHT22;48278;52.704;6.536;2023-02-28T04:51:02;2.90;99.90
58339;DHT22;48278;52.704;6.536;2023-02-28T04:53:29;2.80;99.90
58339;DHT22;48278;52.704;6.536;2023-02-28T04:55:56;2.80;99.90
58339;DHT22;48278;52.704;6.536;2023-02-28T04:58:21;2.80;99.90
58339;DHT22;48278;52.704;6.536;2023-02-28T05:00:51;2.90;99.90
58339;DHT22;48278;52.704;6.536;2023-02-28T05:03:17;3.00;99.90
58339;DHT22;48278;52.704;6.536;2023-02-28T05:05:43;2.90;99.90
58339;DHT22;48278;52.704;6.536;2023-02-28T05:08:09;2.90;99.90
58339;DHT22;48278;52.704;6.536;2023-02-28T05:10:35;2.90;99.90
58339;DHT22;48278;52.704;6.536;2023-02-28T05:13:01;2.80;99.90
58339;DHT22;48278;52.704;6.536;2023-02-28T05:15:27;2.80;99.90
58339;DHT22;48278;52.704;6.536;2023-02-28T05:17:53;2.80;99.90
58339;DHT22;48278;52.704;6.536;2023-02-28T05:20:18;2.80;99.90
58339;DHT22;48278;52.704;6.536;2023-02-28T05:22:44;2.80;99.90
58339;DHT22;48278;52.704;6.536;2023-02-28T05:25:19;2.80;99.90
58339;DHT22;48278;52.704;6.536;2023-02-28T05:27:45;2.80;99.90
58339;DHT22;48278;52.704;6.536;2023-02-28T05:30:11;2.80;99.90
58339;DHT22;48278;52.704;6.536;2023-02-28T05:32:38;2.80;99.90
58339;DHT22;48278;52.704;6.536;2023-02-28T05:35:11;2.80;99.90
58339;DHT22;48278;52.704;6.536;2023-02-28T05:37:38;2.80;99.90
58339;DHT22;48278;52.704;6.536;2023-02-28T05:40:06;2.80;99.90
58339;DHT22;48278;52.704;6.536;2023-02-28T05:42:33;2.80;99.90
58339;DHT22;48278;52.704;6.536;2023-02-28T05:44:59;2.80;99.90
58339;DHT22;48278;52.704;6.536;2023-02-28T05:47:24;2.80;99.90
58339;DHT22;48278;52.704;6.536;2023-02-28T05:49:50;2.80;99.90
58339;DHT22;48278;52.704;6.536;2023-02-28T05:52:16;2.80;99.90
58339;DHT22;48278;52.704;6.536;2023-02-28T05:54:42;2.80;99.90
58339;DHT22;48278;52.704;6.536;2023-02-28T05:57:07;2.70;99.90
58339;DHT22;48278;52.704;6.536;2023-02-28T05:59:33;2.70;99.90
58339;DHT22;48278;52.704;6.536;2023-02-28T06:01:59;2.70;99.90
58339;DHT22;48278;52.704;6.536;2023-02-28T06:04:25;2.70;99.90
58339;DHT22;48278;52.704;6.536;2023-02-28T06:06:51;2.70;99.90
58339;DHT22;48278;52.704;6.536;2023-02-28T06:09:17;2.70;99.90
58339;DHT22;48278;52.704;6.536;2023-02-28T06:11:43;2.80;99.90
58339;DHT22;48278;52.704;6.536;2023-02-28T06:14:19;2.70;99.90
58339;DHT22;48278;52.704;6.536;2023-02-28T06:16:45;2.70;99.90
58339;DHT22;48278;52.704;6.536;2023-02-28T06:19:11;2.70;99.90
58339;DHT22;48278;52.704;6.536;2023-02-28T06:21:37;2.70;99.90
58339;DHT22;48278;52.704;6.536;2023-02-28T06:24:03;2.70;99.90
58339;DHT22;48278;52.704;6.536;2023-02-28T06:26:29;2.70;99.90
58339;DHT22;48278;52.704;6.536;2023-02-28T06:28:56;2.70;99.90
58339;DHT22;48278;52.704;6.536;2023-02-28T06:31:22;2.70;99.90
58339;DHT22;48278;52.704;6.536;2023-02-28T06:33:48;2.70;99.90
58339;DHT22;48278;52.704;6.536;2023-02-28T06:36:15;2.70;99.90
58339;DHT22;48278;52.704;6.536;2023-02-28T06:38:42;2.70;99.90
58339;DHT22;48278;52.704;6.536;2023-02-28T06:41:08;2.70;99.90
58339;DHT22;48278;52.704;6.536;2023-02-28T06:43:38;2.70;99.90
58339;DHT22;48278;52.704;6.536;2023-02-28T06:46:06;2.60;99.90
58339;DHT22;48278;52.704;6.536;2023-02-28T06:48:33;2.60;99.90
58339;DHT22;48278;52.704;6.536;2023-02-28T06:51:06;2.70;99.90
58339;DHT22;48278;52.704;6.536;2023-02-28T06:53:33;2.70;99.90
58339;DHT22;48278;52.704;6.536;2023-02-28T06:55:59;2.80;99.90
58339;DHT22;48278;52.704;6.536;2023-02-28T06:58:25;2.80;99.90
58339;DHT22;48278;52.704;6.536;2023-02-28T07:00:51;2.70;99.90
58339;DHT22;48278;52.704;6.536;2023-02-28T07:03:18;2.80;99.90
58339;DHT22;48278;52.704;6.536;2023-02-28T07:05:44;2.80;99.90
58339;DHT22;48278;52.704;6.536;2023-02-28T07:08:11;2.80;99.90
58339;DHT22;48278;52.704;6.536;2023-02-28T07:10:40;2.80;99.90
58339;DHT22;48278;52.704;6.536;2023-02-28T07:13:06;2.90;99.90
58339;DHT22;48278;52.704;6.536;2023-02-28T07:15:34;2.90;99.90
58339;DHT22;48278;52.704;6.536;2023-02-28T07:18:00;3.00;99.90
58339;DHT22;48278;52.704;6.536;2023-02-28T07:20:26;3.00;99.90
58339;DHT22;48278;52.704;6.536;2023-02-28T07:22:52;3.00;99.90
58339;DHT22;48278;52.704;6.536;2023-02-28T07:25:25;3.00;99.90
58339;DHT22;48278;52.704;6.536;2023-02-28T07:27:52;3.10;99.90
58339;DHT22;48278;52.704;6.536;2023-02-28T07:30:18;3.20;99.90
58339;DHT22;48278;52.704;6.536;2023-02-28T07:32:44;3.10;99.90
58339;DHT22;48278;52.704;6.536;2023-02-28T07:35:10;3.20;99.90
58339;DHT22;48278;52.704;6.536;2023-02-28T07:37:35;3.20;99.90
58339;DHT22;48278;52.704;6.536;2023-02-28T07:40:06;3.20;99.90
58339;DHT22;48278;52.704;6.536;2023-02-28T07:42:34;3.10;99.90
58339;DHT22;48278;52.704;6.536;2023-02-28T07:45:01;3.20;99.90
58339;DHT22;48278;52.704;6.536;2023-02-28T07:47:26;3.30;99.90
58339;DHT22;48278;52.704;6.536;2023-02-28T07:49:54;3.40;99.90
58339;DHT22;48278;52.704;6.536;2023-02-28T07:52:19;3.50;99.90
58339;DHT22;48278;52.704;6.536;2023-02-28T07:54:45;3.70;99.90
58339;DHT22;48278;52.704;6.536;2023-02-28T07:57:11;3.70;99.90
58339;DHT22;48278;52.704;6.536;2023-02-28T07:59:36;3.50;99.90
58339;DHT22;48278;52.704;6.536;2023-02-28T08:02:02;3.50;99.90
58339;DHT22;48278;52.704;6.536;2023-02-28T08:04:28;3.50;99.90
58339;DHT22;48278;52.704;6.536;2023-02-28T08:06:56;3.50;99.90
58339;DHT22;48278;52.704;6.536;2023-02-28T08:09:22;3.50;99.90
58339;DHT22;48278;52.704;6.536;2023-02-28T08:11:48;3.60;99.90
58339;DHT22;48278;52.704;6.536;2023-02-28T08:14:14;3.50;99.90
58339;DHT22;48278;52.704;6.536;2023-02-28T08:16:39;3.60;99.90
58339;DHT22;48278;52.704;6.536;2023-02-28T08:19:05;3.70;99.90
58339;DHT22;48278;52.704;6.536;2023-02-28T08:21:31;3.70;99.90
58339;DHT22;48278;52.704;6.536;2023-02-28T08:23:56;3.90;99.90
58339;DHT22;48278;52.704;6.536;2023-02-28T08:26:22;4.00;99.90
58339;DHT22;48278;52.704;6.536;2023-02-28T08:28:49;4.20;99.90
58339;DHT22;48278;52.704;6.536;2023-02-28T08:31:16;4.30;99.90
58339;DHT22;48278;52.704;6.536;2023-02-28T08:33:43;4.20;99.90
58339;DHT22;48278;52.704;6.536;2023-02-28T08:36:10;4.30;99.90
58339;DHT22;48278;52.704;6.536;2023-02-28T08:38:36;4.40;99.90
58339;DHT22;48278;52.704;6.536;2023-02-28T08:41:05;4.40;99.90
58339;DHT22;48278;52.704;6.536;2023-02-28T08:43:33;4.40;99.90
58339;DHT22;48278;52.704;6.536;2023-02-28T08:45:59;4.50;99.90
58339;DHT22;48278;52.704;6.536;2023-02-28T08:48:29;4.70;99.90
58339;DHT22;48278;52.704;6.536;2023-02-28T08:51:07;4.80;99.90
58339;DHT22;48278;52.704;6.536;2023-02-28T08:53:38;4.80;99.90
58339;DHT22;48278;52.704;6.536;2023-02-28T08:56:09;4.90;99.90
58339;DHT22;48278;52.704;6.536;2023-02-28T08:58:36;5.00;99.90
58339;DHT22;48278;52.704;6.536;2023-02-28T09:01:17;5.00;99.90
58339;DHT22;48278;52.704;6.536;2023-02-28T09:03:44;5.20;99.90
58339;DHT22;48278;52.704;6.536;2023-02-28T09:06:12;5.20;99.90
58339;DHT22;48278;52.704;6.536;2023-02-28T09:08:39;5.30;99.90
58339;DHT22;48278;52.704;6.536;2023-02-28T09:11:05;5.50;99.90
58339;DHT22;48278;52.704;6.536;2023-02-28T09:13:32;5.60;99.90
58339;DHT22;48278;52.704;6.536;2023-02-28T09:15:59;5.70;99.90
58339;DHT22;48278;52.704;6.536;2023-02-28T09:18:25;5.70;99.90
58339;DHT22;48278;52.704;6.536;2023-02-28T09:20:52;5.40;99.90
58339;DHT22;48278;52.704;6.536;2023-02-28T09:23:18;5.50;99.90
58339;DHT22;48278;52.704;6.536;2023-02-28T09:25:54;5.50;99.90
58339;DHT22;48278;52.704;6.536;2023-02-28T09:28:21;5.20;99.90
58339;DHT22;48278;52.704;6.536;2023-02-28T09:30:49;5.00;99.90
58339;DHT22;48278;52.704;6.536;2023-02-28T09:33:16;4.90;99.90
58339;DHT22;48278;52.704;6.536;2023-02-28T09:35:42;5.00;99.90
58339;DHT22;48278;52.704;6.536;2023-02-28T09:38:08;4.90;99.90
58339;DHT22;48278;52.704;6.536;2023-02-28T09:40:45;4.80;99.90
58339;DHT22;48278;52.704;6.536;2023-02-28T09:43:14;4.80;99.90
58339;DHT22;48278;52.704;6.536;2023-02-28T09:45:42;4.60;99.90
58339;DHT22;48278;52.704;6.536;2023-02-28T09:48:17;4.60;99.90
58339;DHT22;48278;52.704;6.536;2023-02-28T09:51:00;4.60;99.90
58339;DHT22;48278;52.704;6.536;2023-02-28T09:53:33;4.60;99.90
58339;DHT22;48278;52.704;6.536;2023-02-28T09:56:09;4.60;99.90
58339;DHT22;48278;52.704;6.536;2023-02-28T09:58:58;4.60;99.90
58339;DHT22;48278;52.704;6.536;2023-02-28T10:01:33;4.50;99.90
58339;DHT22;48278;52.704;6.536;2023-02-28T10:07:03;4.40;99.90
58339;DHT22;48278;52.704;6.536;2023-02-28T10:09:32;4.40;99.90
58339;DHT22;48278;52.704;6.536;2023-02-28T10:12:04;4.40;99.90
58339;DHT22;48278;52.704;6.536;2023-02-28T10:14:33;4.50;99.90
58339;DHT22;48278;52.704;6.536;2023-02-28T10:17:15;4.50;99.90
58339;DHT22;48278;52.704;6.536;2023-02-28T10:19:44;4.50;99.90
58339;DHT22;48278;52.704;6.536;2023-02-28T10:22:15;4.60;99.90
58339;DHT22;48278;52.704;6.536;2023-02-28T10:24:51;4.60;99.90
58339;DHT22;48278;52.704;6.536;2023-02-28T10:27:22;4.60;99.90
58339;DHT22;48278;52.704;6.536;2023-02-28T10:32:18;4.70;99.90
58339;DHT22;48278;52.704;6.536;2023-02-28T10:34:44;4.90;99.90
58339;DHT22;48278;52.704;6.536;2023-02-28T10:37:15;4.90;99.90
58339;DHT22;48278;52.704;6.536;2023-02-28T10:39:44;5.00;99.90
58339;DHT22;48278;52.704;6.536;2023-02-28T10:42:26;5.10;99.90
58339;DHT22;48278;52.704;6.536;2023-02-28T10:45:14;5.10;99.90
58339;DHT22;48278;52.704;6.536;2023-02-28T10:47:55;5.10;99.90
58339;DHT22;48278;52.704;6.536;2023-02-28T10:58:26;5.00;98.20
58339;DHT22;48278;52.704;6.536;2023-02-28T11:00:52;5.00;99.80
58339;DHT22;48278;52.704;6.536;2023-02-28T11:03:28;5.10;99.90
58339;DHT22;48278;52.704;6.536;2023-02-28T11:05:54;5.10;99.90
58339;DHT22;48278;52.704;6.536;2023-02-28T11:08:20;5.20;99.90
58339;DHT22;48278;52.704;6.536;2023-02-28T11:10:55;5.20;99.90
58339;DHT22;48278;52.704;6.536;2023-02-28T11:13:33;5.40;99.90
58339;DHT22;48278;52.704;6.536;2023-02-28T11:16:03;5.50;99.90
58339;DHT22;48278;52.704;6.536;2023-02-28T11:21:02;5.50;99.90
58339;DHT22;48278;52.704;6.536;2023-02-28T11:23:30;5.50;99.40
58339;DHT22;48278;52.704;6.536;2023-02-28T11:26:00;5.50;99.90
58339;DHT22;48278;52.704;6.536;2023-02-28T11:28:35;5.50;99.90
58339;DHT22;48278;52.704;6.536;2023-02-28T11:33:53;5.70;99.90
58339;DHT22;48278;52.704;6.536;2023-02-28T11:36:30;5.70;99.90
58339;DHT22;48278;52.704;6.536;2023-02-28T11:39:00;5.80;99.90
58339;DHT22;48278;52.704;6.536;2023-02-28T11:46:37;6.20;99.90
58339;DHT22;48278;52.704;6.536;2023-02-28T11:52:45;6.00;99.90
58339;DHT22;48278;52.704;6.536;2023-02-28T11:55:16;6.00;99.90
58339;DHT22;48278;52.704;6.536;2023-02-28T12:01:03;5.80;99.90
58339;DHT22;48278;52.704;6.536;2023-02-28T12:06:27;5.90;99.90
58339;DHT22;48278;52.704;6.536;2023-02-28T12:12:03;6.00;99.90
58339;DHT22;48278;52.704;6.536;2023-02-28T12:18:09;6.00;99.90
58339;DHT22;48278;52.704;6.536;2023-02-28T12:26:31;6.00;98.10
58339;DHT22;48278;52.704;6.536;2023-02-28T12:29:12;6.00;96.60
58339;DHT22;48278;52.704;6.536;2023-02-28T12:31:49;6.00;96.00
58339;DHT22;48278;52.704;6.536;2023-02-28T12:34:25;6.10;99.50
58339;DHT22;48278;52.704;6.536;2023-02-28T12:36:54;6.20;99.90
58339;DHT22;48278;52.704;6.536;2023-02-28T12:39:32;6.20;99.90
58339;DHT22;48278;52.704;6.536;2023-02-28T12:42:07;6.20;99.90
58339;DHT22;48278;52.704;6.536;2023-02-28T12:44:48;6.20;99.90
58339;DHT22;48278;52.704;6.536;2023-02-28T12:47:16;6.20;98.50
58339;DHT22;48278;52.704;6.536;2023-02-28T12:49:56;6.30;99.10
58339;DHT22;48278;52.704;6.536;2023-02-28T13:00:49;6.40;98.90
58339;DHT22;48278;52.704;6.536;2023-02-28T13:06:28;6.50;98.40
58339;DHT22;48278;52.704;6.536;2023-02-28T13:09:16;6.50;97.60
58339;DHT22;48278;52.704;6.536;2023-02-28T13:11:45;6.50;97.20
58339;DHT22;48278;52.704;6.536;2023-02-28T13:14:30;6.40;96.20
58339;DHT22;48278;52.704;6.536;2023-02-28T13:28:12;6.50;96.30
58339;DHT22;48278;52.704;6.536;2023-02-28T13:33:27;6.30;96.80
58339;DHT22;48278;52.704;6.536;2023-02-28T13:41:48;6.30;96.30
58339;DHT22;48278;52.704;6.536;2023-02-28T13:54:55;6.40;98.10
58339;DHT22;48278;52.704;6.536;2023-02-28T14:05:30;6.50;97.90
58339;DHT22;48278;52.704;6.536;2023-02-28T14:08:12;6.40;94.60
58339;DHT22;48278;52.704;6.536;2023-02-28T14:11:02;6.40;97.50
58339;DHT22;48278;52.704;6.536;2023-02-28T14:13:40;6.50;96.90
58339;DHT22;48278;52.704;6.536;2023-02-28T14:16:20;6.40;97.10
58339;DHT22;48278;52.704;6.536;2023-02-28T14:19:02;6.40;94.90
58339;DHT22;48278;52.704;6.536;2023-02-28T14:21:33;6.50;98.30
58339;DHT22;48278;52.704;6.536;2023-02-28T14:27:19;6.50;97.40
58339;DHT22;48278;52.704;6.536;2023-02-28T14:32:51;6.40;95.10
58339;DHT22;48278;52.704;6.536;2023-02-28T14:37:52;6.40;97.50
58339;DHT22;48278;52.704;6.536;2023-02-28T14:40:29;6.40;96.60
58339;DHT22;48278;52.704;6.536;2023-02-28T14:43:00;6.40;98.20
58339;DHT22;48278;52.704;6.536;2023-02-28T14:45:29;6.40;98.30
58339;DHT22;48278;52.704;6.536;2023-02-28T14:47:56;6.50;98.70
58339;DHT22;48278;52.704;6.536;2023-02-28T14:50:31;6.40;98.40
58339;DHT22;48278;52.704;6.536;2023-02-28T14:52:58;6.40;96.20
58339;DHT22;48278;52.704;6.536;2023-02-28T14:55:32;6.40;95.70
58339;DHT22;48278;52.704;6.536;2023-02-28T14:58:04;6.40;97.40
58339;DHT22;48278;52.704;6.536;2023-02-28T15:00:53;6.40;94.80
58339;DHT22;48278;52.704;6.536;2023-02-28T15:03:28;6.40;97.40
58339;DHT22;48278;52.704;6.536;2023-02-28T15:06:19;6.30;97.70
58339;DHT22;48278;52.704;6.536;2023-02-28T15:08:46;6.30;98.30
58339;DHT22;48278;52.704;6.536;2023-02-28T15:11:16;6.20;98.10
58339;DHT22;48278;52.704;6.536;2023-02-28T15:13:53;6.20;95.60
58339;DHT22;48278;52.704;6.536;2023-02-28T15:16:26;6.20;97.80
58339;DHT22;48278;52.704;6.536;2023-02-28T15:18:57;6.30;97.30
58339;DHT22;48278;52.704;6.536;2023-02-28T15:21:33;6.40;95.40
58339;DHT22;48278;52.704;6.536;2023-02-28T15:26:43;6.40;96.60
58339;DHT22;48278;52.704;6.536;2023-02-28T15:29:31;6.40;97.90
58339;DHT22;48278;52.704;6.536;2023-02-28T15:32:02;6.30;97.00
58339;DHT22;48278;52.704;6.536;2023-02-28T15:34:41;6.20;97.10
58339;DHT22;48278;52.704;6.536;2023-02-28T15:37:26;6.20;97.20
58339;DHT22;48278;52.704;6.536;2023-02-28T15:39:54;6.40;98.40
58339;DHT22;48278;52.704;6.536;2023-02-28T15:42:23;6.40;95.50
58339;DHT22;48278;52.704;6.536;2023-02-28T15:44:49;6.20;93.40
58339;DHT22;48278;52.704;6.536;2023-02-28T15:47:27;6.30;94.60
58339;DHT22;48278;52.704;6.536;2023-02-28T15:50:02;6.30;96.40
58339;DHT22;48278;52.704;6.536;2023-02-28T15:52:33;6.30;97.70
58339;DHT22;48278;52.704;6.536;2023-02-28T15:55:08;6.30;97.60
58339;DHT22;48278;52.704;6.536;2023-02-28T15:57:35;6.20;97.90
58339;DHT22;48278;52.704;6.536;2023-02-28T16:00:03;6.20;96.30
58339;DHT22;48278;52.704;6.536;2023-02-28T16:02:37;6.20;96.70
58339;DHT22;48278;52.704;6.536;2023-02-28T16:07:40;6.10;98.20
58339;DHT22;48278;52.704;6.536;2023-02-28T16:10:07;6.10;97.20
58339;DHT22;48278;52.704;6.536;2023-02-28T16:12:35;6.10;98.40
58339;DHT22;48278;52.704;6.536;2023-02-28T16:15:07;6.00;98.70
58339;DHT22;48278;52.704;6.536;2023-02-28T16:17:37;6.10;98.70
58339;DHT22;48278;52.704;6.536;2023-02-28T16:20:20;6.00;98.30
58339;DHT22;48278;52.704;6.536;2023-02-28T16:22:46;5.90;97.60
58339;DHT22;48278;52.704;6.536;2023-02-28T16:25:34;5.90;97.60
58339;DHT22;48278;52.704;6.536;2023-02-28T16:28:01;5.90;98.30
58339;DHT22;48278;52.704;6.536;2023-02-28T16:30:28;5.80;97.10
58339;DHT22;48278;52.704;6.536;2023-02-28T16:32:56;5.70;98.60
58339;DHT22;48278;52.704;6.536;2023-02-28T16:35:23;5.70;99.50
58339;DHT22;48278;52.704;6.536;2023-02-28T16:37:51;5.60;99.10
58339;DHT22;48278;52.704;6.536;2023-02-28T16:40:23;5.60;99.70
58339;DHT22;48278;52.704;6.536;2023-02-28T16:42:50;5.60;99.60
58339;DHT22;48278;52.704;6.536;2023-02-28T16:45:19;5.60;99.90
58339;DHT22;48278;52.704;6.536;2023-02-28T16:47:46;5.40;99.30
58339;DHT22;48278;52.704;6.536;2023-02-28T16:50:32;5.30;99.60
58339;DHT22;48278;52.704;6.536;2023-02-28T16:53:01;5.30;99.70
58339;DHT22;48278;52.704;6.536;2023-02-28T16:55:27;5.20;98.50
58339;DHT22;48278;52.704;6.536;2023-02-28T16:57:55;5.00;98.90
58339;DHT22;48278;52.704;6.536;2023-02-28T17:00:21;5.00;99.40
58339;DHT22;48278;52.704;6.536;2023-02-28T17:02:47;4.90;99.10
58339;DHT22;48278;52.704;6.536;2023-02-28T17:05:14;4.80;99.50
58339;DHT22;48278;52.704;6.536;2023-02-28T17:07:41;4.80;99.60
58339;DHT22;48278;52.704;6.536;2023-02-28T17:10:19;4.70;99.90
58339;DHT22;48278;52.704;6.536;2023-02-28T17:12:45;4.60;99.60
58339;DHT22;48278;52.704;6.536;2023-02-28T17:15:13;4.50;99.90
58339;DHT22;48278;52.704;6.536;2023-02-28T17:17:40;4.40;99.90
58339;DHT22;48278;52.704;6.536;2023-02-28T17:20:07;4.40;99.90
58339;DHT22;48278;52.704;6.536;2023-02-28T17:22:35;4.30;99.90
58339;DHT22;48278;52.704;6.536;2023-02-28T17:25:01;4.20;99.90
58339;DHT22;48278;52.704;6.536;2023-02-28T17:27:27;4.20;99.90
58339;DHT22;48278;52.704;6.536;2023-02-28T17:29:52;4.10;99.90
58339;DHT22;48278;52.704;6.536;2023-02-28T17:32:18;4.10;99.90
58339;DHT22;48278;52.704;6.536;2023-02-28T17:34:44;4.00;99.90
58339;DHT22;48278;52.704;6.536;2023-02-28T17:37:11;3.90;99.90
58339;DHT22;48278;52.704;6.536;2023-02-28T17:39:37;3.90;99.90
58339;DHT22;48278;52.704;6.536;2023-02-28T17:42:02;3.70;99.90
58339;DHT22;48278;52.704;6.536;2023-02-28T17:44:28;3.70;99.90
58339;DHT22;48278;52.704;6.536;2023-02-28T17:46:54;3.60;99.90
58339;DHT22;48278;52.704;6.536;2023-02-28T17:49:21;3.60;99.90
58339;DHT22;48278;52.704;6.536;2023-02-28T17:51:47;3.50;99.90
58339;DHT22;48278;52.704;6.536;2023-02-28T17:54:13;3.40;99.90
58339;DHT22;48278;52.704;6.536;2023-02-28T17:56:40;3.30;99.90
58339;DHT22;48278;52.704;6.536;2023-02-28T17:59:08;3.30;99.90
58339;DHT22;48278;52.704;6.536;2023-02-28T18:01:34;3.20;99.90
58339;DHT22;48278;52.704;6.536;2023-02-28T18:03:59;3.10;99.90
58339;DHT22;48278;52.704;6.536;2023-02-28T18:06:28;3.00;99.90
58339;DHT22;48278;52.704;6.536;2023-02-28T18:08:55;3.00;99.90
58339;DHT22;48278;52.704;6.536;2023-02-28T18:11:22;2.90;99.90
58339;DHT22;48278;52.704;6.536;2023-02-28T18:13:53;3.00;99.90
58339;DHT22;48278;52.704;6.536;2023-02-28T18:16:21;2.90;99.90
58339;DHT22;48278;52.704;6.536;2023-02-28T18:18:47;2.80;99.90
58339;DHT22;48278;52.704;6.536;2023-02-28T18:21:15;2.90;99.90
58339;DHT22;48278;52.704;6.536;2023-02-28T18:23:42;2.90;99.90
58339;DHT22;48278;52.704;6.536;2023-02-28T18:26:17;2.90;99.90
58339;DHT22;48278;52.704;6.536;2023-02-28T18:28:44;2.80;99.90
58339;DHT22;48278;52.704;6.536;2023-02-28T18:31:11;2.80;99.90
58339;DHT22;48278;52.704;6.536;2023-02-28T18:33:40;2.80;99.90